Main page
METAR-TAF:

METAR-TAF

Airports :

Karachi, Pakistan

Jinnah International Airport

latitude: 24-54N, longitude: 067-08E, elevation: 21 m

Current weather observation

The report was made 39 minutes ago, at 13:25 UTC
Wind 6 kt from the Southwest
Temperature 30°C
Humidity 40%
Pressure 1007 hPa
Visibility: 5000 m
haze

METAR: OPKC 211325Z 23006KT 5000 HZ NSC 30/15 Q1007 NOSIG

Time: 19:04 (14:04 UTC)

Forecast

The report was made 4 hours and 34 minutes ago, at 09:30 UTC
Forecast valid from 21 at 12 UTC to 22 at 18 UTC
Wind 8 kt from the West/Southwest
Visibility: 6000 m
From 21 at 1900 UTC
Wind 5 kt from the West
Visibility: 5000 m
haze
Temporary
from 22 at 01 UTC to 22 at 05 UTC
Wind kt from the North
Visibility: 3000 m
Scattered clouds at a height of 2000 ft
smoke
From 22 at 0700 UTC
Wind 8 kt from the Southwest with gusts up to 18 kt
Visibility: 6000 m

TAF: OPKC 210930Z 2112/2218 24008KT 6000 NSC FM211900 26005KT 5000 HZ NSC TEMPO 2201/2205 00000KT 3000 FU SCT020 FM220700 23008G18KT 6000 NSC

Weather observations and forecasts of more than 4000 airports (METAR and TAF reports).

The available stations are represented by yellow and red dots on the map.

Hover mouse over dot to see the name of the station.

Then click to see weather observations and forecasts.

To change the map : click on the green buttons with a black cross to zoom in, on the green button with a dash to zoom out, or on the green arrows for adjacent maps.


METAR-TAF: